createdAt,value
2022-09-18T00:04:21.785Z,1.30
2022-09-18T00:09:28.658Z,1.17
2022-09-18T00:14:35.787Z,1.37
2022-09-18T00:19:42.659Z,1.30
2022-09-18T00:24:49.530Z,1.30
2022-09-18T00:29:56.347Z,1.30
2022-09-18T00:35:03.232Z,1.20
2022-09-18T00:40:11.125Z,1.37
2022-09-18T00:45:18.098Z,1.10
2022-09-18T00:50:27.927Z,1.20
2022-09-18T00:55:38.885Z,1.30
2022-09-18T01:00:45.940Z,1.27
2022-09-18T01:05:53.947Z,1.20
2022-09-18T01:11:01.896Z,1.33
2022-09-18T01:16:09.816Z,1.10
2022-09-18T01:21:19.690Z,1.47
2022-09-18T01:26:27.735Z,1.20
2022-09-18T01:31:37.557Z,1.20
2022-09-18T01:36:47.300Z,1.30
2022-09-18T01:41:55.488Z,1.10
2022-09-18T01:47:05.278Z,1.43
2022-09-18T01:52:16.647Z,1.30
2022-09-18T01:57:27.524Z,1.50
2022-09-18T02:02:38.283Z,1.30
2022-09-18T02:07:48.291Z,1.40
2022-09-18T02:12:58.368Z,1.40
2022-09-18T02:18:09.410Z,1.20
2022-09-18T02:23:18.271Z,1.20
2022-09-18T02:28:27.463Z,1.20
2022-09-18T02:33:37.316Z,1.50
2022-09-18T02:38:47.477Z,1.40
2022-09-18T02:43:58.127Z,1.30
2022-09-18T02:49:10.220Z,1.30
2022-09-18T02:54:22.308Z,1.50
2022-09-18T02:59:33.744Z,1.50
2022-09-18T03:04:41.686Z,1.50
2022-09-18T03:09:50.143Z,1.30
2022-09-18T03:14:57.455Z,1.30
2022-09-18T03:20:07.644Z,1.47
2022-09-18T03:25:15.696Z,1.20
2022-09-18T03:30:23.145Z,1.40
2022-09-18T03:35:30.175Z,1.30
2022-09-18T03:40:37.458Z,1.43
2022-09-18T03:45:45.328Z,1.20
2022-09-18T03:50:53.791Z,1.57
2022-09-18T03:56:01.215Z,1.30
2022-09-18T04:01:10.811Z,1.20
2022-09-18T04:06:19.279Z,1.27
2022-09-18T04:11:27.817Z,1.43
2022-09-18T04:16:35.071Z,1.60
2022-09-18T04:21:42.016Z,1.40
2022-09-18T04:26:50.257Z,1.40
2022-09-18T04:31:58.692Z,1.20
2022-09-18T04:37:10.148Z,1.50
2022-09-18T04:42:14.489Z,1.43
2022-09-18T04:47:22.961Z,1.50
2022-09-18T04:52:29.955Z,1.53
2022-09-18T04:57:37.098Z,1.60
2022-09-18T05:02:45.550Z,1.50
2022-09-18T05:07:54.096Z,1.50
2022-09-18T05:13:01.568Z,1.50
2022-09-18T05:18:12.076Z,1.60
2022-09-18T05:23:19.332Z,1.60
2022-09-18T05:28:26.607Z,1.60
2022-09-18T05:33:34.640Z,1.33
2022-09-18T05:38:41.863Z,1.63
2022-09-18T05:43:49.509Z,2.03
2022-09-18T05:48:56.509Z,2.00
2022-09-18T05:54:03.995Z,1.90
2022-09-18T05:59:12.595Z,2.30
2022-09-18T06:04:21.051Z,1.97
2022-09-18T06:09:29.603Z,2.33
2022-09-18T06:14:36.596Z,2.23
2022-09-18T06:19:43.561Z,2.07
2022-09-18T06:24:50.469Z,2.17
2022-09-18T06:29:58.914Z,2.30
2022-09-18T06:35:08.078Z,2.20
2022-09-18T06:40:15.088Z,2.00
2022-09-18T06:45:23.778Z,2.20
2022-09-18T06:50:31.060Z,2.00
2022-09-18T06:55:37.851Z,2.40
2022-09-18T07:00:45.641Z,2.10
2022-09-18T07:05:53.545Z,2.00
2022-09-18T07:11:03.389Z,1.87
2022-09-18T07:16:10.402Z,1.70
2022-09-18T07:21:17.468Z,1.70
2022-09-18T07:26:24.457Z,2.00
2022-09-18T07:31:32.662Z,1.67
2022-09-18T07:36:43.349Z,1.90
2022-09-18T07:41:50.765Z,1.83
2022-09-18T07:46:57.866Z,2.03
2022-09-18T07:52:06.290Z,1.93
2022-09-18T07:57:14.970Z,1.67
2022-09-18T08:02:23.690Z,1.70
2022-09-18T08:07:30.899Z,1.60
2022-09-18T08:12:39.380Z,1.50
2022-09-18T08:17:47.935Z,1.50
2022-09-18T08:22:56.697Z,1.70
2022-09-18T08:28:08.078Z,1.90
2022-09-18T08:33:16.614Z,2.07
2022-09-18T08:38:23.926Z,2.23
2022-09-18T08:43:35.609Z,1.73
2022-09-18T08:48:45.742Z,1.70
2022-09-18T08:53:56.199Z,1.90
2022-09-18T08:59:07.702Z,1.90
2022-09-18T09:04:19.597Z,1.87
2022-09-18T09:09:29.787Z,1.57
2022-09-18T09:14:56.022Z,1.93
2022-09-18T09:19:50.585Z,1.80
2022-09-18T09:24:59.329Z,1.60
2022-09-18T09:30:09.054Z,1.60
2022-09-18T09:35:19.274Z,1.63
2022-09-18T09:40:30.734Z,2.20
2022-09-18T09:45:40.996Z,2.20
2022-09-18T09:50:53.156Z,1.73
2022-09-18T09:56:04.839Z,1.70
2022-09-18T10:01:15.303Z,1.70
2022-09-18T10:06:26.443Z,1.90
2022-09-18T10:11:37.330Z,1.87
2022-09-18T10:16:47.410Z,1.70
2022-09-18T10:21:57.292Z,1.60
2022-09-18T10:27:07.697Z,1.50
2022-09-18T10:32:17.230Z,1.40
2022-09-18T10:37:29.486Z,1.60
2022-09-18T10:42:40.030Z,1.43
2022-09-18T10:47:50.328Z,1.53
2022-09-18T10:53:01.004Z,1.70
2022-09-18T10:58:12.767Z,1.37
2022-09-18T11:03:23.279Z,1.60
2022-09-18T11:08:34.558Z,1.47
2022-09-18T11:13:45.364Z,1.30
2022-09-18T11:18:56.938Z,1.70
2022-09-18T11:24:07.429Z,1.40
2022-09-18T11:29:17.105Z,1.40
2022-09-18T11:34:32.692Z,1.60
2022-09-18T11:39:45.580Z,1.60
2022-09-18T11:44:56.947Z,1.40
2022-09-18T11:50:05.764Z,1.40
2022-09-18T11:55:14.370Z,1.40
2022-09-18T12:00:24.963Z,1.30
2022-09-18T12:05:37.452Z,1.20
2022-09-18T12:10:47.291Z,1.40
2022-09-18T12:15:58.545Z,1.27
2022-09-18T12:21:09.120Z,1.30
2022-09-18T12:26:18.438Z,1.60
2022-09-18T12:31:29.948Z,1.53
2022-09-18T12:36:37.344Z,1.50
2022-09-18T12:41:44.399Z,1.30
2022-09-18T12:46:56.908Z,1.13
2022-09-18T12:52:04.873Z,1.20
2022-09-18T12:57:13.659Z,1.50
2022-09-18T13:02:21.896Z,1.30
2022-09-18T13:07:32.288Z,1.30
2022-09-18T13:12:43.019Z,1.37
2022-09-18T13:17:54.125Z,1.40
2022-09-18T13:23:02.595Z,1.30
2022-09-18T13:28:12.830Z,1.60
2022-09-18T13:33:23.641Z,1.20
2022-09-18T13:38:32.853Z,1.37
2022-09-18T13:43:44.472Z,1.43
2022-09-18T13:48:54.837Z,1.23
2022-09-18T13:54:05.209Z,1.20
2022-09-18T13:59:15.199Z,1.20
2022-09-18T14:04:24.968Z,1.30
2022-09-18T14:09:35.059Z,1.30
2022-09-18T14:14:45.057Z,1.10
2022-09-18T14:19:57.128Z,1.23
2022-09-18T14:25:08.056Z,1.20
2022-09-18T14:30:18.528Z,1.00
2022-09-18T14:35:30.179Z,1.23
2022-09-18T14:40:41.589Z,1.20
2022-09-18T14:45:51.735Z,1.50
2022-09-18T14:51:02.644Z,1.00
2022-09-18T14:56:12.823Z,1.20
2022-09-18T15:01:24.810Z,1.23
2022-09-18T15:06:35.335Z,1.20
2022-09-18T15:12:01.846Z,1.20
2022-09-18T15:16:58.163Z,1.10
2022-09-18T15:22:05.986Z,1.20
2022-09-18T15:27:17.497Z,1.10
2022-09-18T15:32:28.847Z,1.10
2022-09-18T15:37:37.881Z,1.17
2022-09-18T15:42:48.275Z,1.20
2022-09-18T15:47:58.679Z,1.30
2022-09-18T15:53:09.783Z,1.13
2022-09-18T15:58:19.943Z,1.10
2022-09-18T16:03:30.491Z,1.10
2022-09-18T16:08:39.341Z,1.10
2022-09-18T16:13:46.814Z,1.00
2022-09-18T16:18:56.982Z,1.40
2022-09-18T16:24:04.835Z,1.10
2022-09-18T16:29:14.646Z,1.10
2022-09-18T16:34:24.829Z,1.10
2022-09-18T16:39:31.816Z,1.30
2022-09-18T16:44:39.452Z,1.40
2022-09-18T16:49:49.846Z,1.00
2022-09-18T16:54:56.798Z,1.30
2022-09-18T17:00:07.816Z,1.20
2022-09-18T17:05:15.444Z,1.30
2022-09-18T17:10:22.609Z,1.20
2022-09-18T17:15:29.724Z,1.20
2022-09-18T17:20:37.112Z,1.23
2022-09-18T17:25:44.499Z,1.30
2022-09-18T17:30:52.971Z,1.40
2022-09-18T17:36:02.777Z,1.47
2022-09-18T17:41:12.309Z,1.30
2022-09-18T17:46:19.302Z,1.60
2022-09-18T17:51:28.914Z,1.10
2022-09-18T17:56:36.690Z,1.70
2022-09-18T18:01:45.763Z,1.60
2022-09-18T18:06:52.920Z,1.40
2022-09-18T18:11:59.849Z,1.40
2022-09-18T18:17:07.490Z,1.30
2022-09-18T18:22:14.644Z,1.50
2022-09-18T18:27:21.837Z,1.50
2022-09-18T18:32:29.999Z,1.40
2022-09-18T18:37:37.207Z,1.47
2022-09-18T18:42:44.465Z,1.60
2022-09-18T18:47:51.899Z,1.67
2022-09-18T18:52:59.593Z,1.63
2022-09-18T18:58:07.609Z,1.60
2022-09-18T19:03:16.126Z,1.80
2022-09-18T19:08:25.362Z,1.67
2022-09-18T19:13:34.852Z,1.83
2022-09-18T19:18:42.943Z,1.70
2022-09-18T19:23:52.744Z,2.20
2022-09-18T19:29:04.238Z,1.50
2022-09-18T19:34:14.836Z,1.90
2022-09-18T19:39:25.230Z,1.77
2022-09-18T19:44:35.971Z,1.57
2022-09-18T19:49:47.127Z,1.77
2022-09-18T19:54:56.867Z,1.70
2022-09-18T20:00:06.142Z,2.00
2022-09-18T20:05:20.006Z,1.50
2022-09-18T20:10:28.660Z,1.80
2022-09-18T20:15:36.777Z,1.80
2022-09-18T20:20:47.528Z,1.80
2022-09-18T20:25:55.550Z,1.70
2022-09-18T20:31:06.331Z,2.00
2022-09-18T20:36:14.593Z,1.90
2022-09-18T20:41:22.787Z,1.70
2022-09-18T20:46:34.004Z,1.70
2022-09-18T20:51:39.055Z,1.83
2022-09-18T20:56:46.535Z,1.80
2022-09-18T21:01:54.120Z,2.00
2022-09-18T21:07:02.623Z,2.00
2022-09-18T21:12:11.316Z,1.90
2022-09-18T21:17:18.500Z,1.70
2022-09-18T21:22:25.859Z,1.93
2022-09-18T21:27:32.772Z,1.80
2022-09-18T21:32:40.020Z,1.83
2022-09-18T21:37:47.330Z,1.90
2022-09-18T21:42:55.363Z,1.73
2022-09-18T21:48:02.405Z,2.30
2022-09-18T21:53:09.729Z,1.93
2022-09-18T21:58:17.599Z,1.90
2022-09-18T22:03:25.635Z,1.97
2022-09-18T22:08:32.871Z,2.00
2022-09-18T22:13:39.849Z,2.40
2022-09-18T22:18:48.631Z,2.20
2022-09-18T22:23:58.106Z,2.00
2022-09-18T22:29:07.838Z,2.37
2022-09-18T22:34:17.707Z,2.33
2022-09-18T22:39:25.067Z,2.10
2022-09-18T22:44:32.006Z,2.50
2022-09-18T22:49:38.882Z,2.20
2022-09-18T22:54:45.776Z,2.23
2022-09-18T22:59:52.787Z,2.40
2022-09-18T23:04:59.786Z,2.30
2022-09-18T23:10:08.292Z,2.07
2022-09-18T23:15:15.267Z,2.50
2022-09-18T23:20:22.250Z,2.67
2022-09-18T23:25:29.200Z,2.20
2022-09-18T23:30:38.172Z,2.50
2022-09-18T23:35:45.036Z,2.47
2022-09-18T23:40:53.505Z,2.40
2022-09-18T23:46:00.603Z,2.60
2022-09-18T23:51:08.193Z,2.37
2022-09-18T23:56:16.660Z,2.70
